createdAt,value
2019-04-28T00:08:35.522Z,60.8
2019-04-28T00:18:47.178Z,60.6
2019-04-28T00:29:40.071Z,60.6
2019-04-28T00:40:17.372Z,60.9
2019-04-28T00:51:01.830Z,60.2
2019-04-28T01:01:12.621Z,60.3
2019-04-28T01:11:56.803Z,60.8
2019-04-28T01:22:07.704Z,61.6
2019-04-28T01:32:52.477Z,62.0
2019-04-28T01:45:03.759Z,62.2
2019-04-28T01:55:17.176Z,63.1
2019-04-28T02:05:30.400Z,62.3
2019-04-28T02:15:45.085Z,61.7
2019-04-28T02:25:56.475Z,61.7
2019-04-28T02:36:12.224Z,61.9
2019-04-28T02:47:34.109Z,62.5
2019-04-28T02:57:43.765Z,63.5
2019-04-28T03:23:12.300Z,61.6
2019-04-28T03:33:57.008Z,62.5
2019-04-28T03:44:11.449Z,62.0
2019-04-28T03:54:24.686Z,62.4
2019-04-28T04:05:10.986Z,61.6
2019-04-28T05:09:56.652Z,62.9
2019-04-28T05:20:10.013Z,62.9
2019-04-28T05:31:11.287Z,64.8
2019-04-28T05:48:01.443Z,63.3
2019-04-28T05:59:44.456Z,64.5
2019-04-28T06:10:42.909Z,63.9
2019-04-28T06:20:56.451Z,64.6
2019-04-28T06:34:25.278Z,65.6
2019-04-28T06:45:47.956Z,66.0
2019-04-28T06:57:58.926Z,66.3
2019-04-28T07:08:49.625Z,64.8
2019-04-28T07:20:08.381Z,64.6
2019-04-28T07:31:41.302Z,63.8
2019-04-28T07:42:48.562Z,63.1
2019-04-28T07:54:22.263Z,63.4
2019-04-28T08:05:21.955Z,62.0
2019-04-28T08:16:10.902Z,60.5
2019-04-28T08:26:31.713Z,59.4
2019-04-28T08:36:51.776Z,58.8
2019-04-28T08:47:05.882Z,59.3
2019-04-28T08:57:52.487Z,59.4
2019-04-28T09:08:36.819Z,58.0
2019-04-28T09:18:51.059Z,58.1
2019-04-28T09:29:07.666Z,58.3
2019-04-28T09:39:52.788Z,56.7
2019-04-28T09:50:48.440Z,54.4
2019-04-28T10:00:59.596Z,51.6
2019-04-28T10:11:14.091Z,51.0
2019-04-28T10:21:28.466Z,51.6
2019-04-28T10:34:06.351Z,52.6
2019-04-28T10:47:28.384Z,51.9
2019-04-28T11:15:30.082Z,50.0
2019-04-28T13:50:32.489Z,52.2
2019-04-28T14:23:43.002Z,51.2
2019-04-28T15:07:50.869Z,49.5
2019-04-28T15:49:13.904Z,51.1
2019-04-28T16:02:42.927Z,50.8
2019-04-28T16:33:16.698Z,52.3
2019-04-28T16:46:28.270Z,52.2
2019-04-28T16:59:19.715Z,51.9
2019-04-28T17:11:16.112Z,51.8
2019-04-28T18:13:00.281Z,51.1
